»·PEaware :: N324DP KTNP-KBUR

N324DP :: KTNP-KBUR

FLIGHT INFORMATION

Flight Status: Arrived
Operator: Privately registered:
United States
More flights under this callsign
Pilot: Douglas P. (31154)
Aircraft: CIRRUS SR-22
(SR22)
More flights by this aircraft type
Origin: KTNP Twentynine Palms
United States
Destination: KBUR Bob Hope-Burbank
United States
More flights between these airports :: More routes between these airports
Route:
File this flight plan on PilotEdge
Remarks:
Altitude:
(Current/Filed)
6,500ft
Speed:
(Current/Filed)
0kts
Departed: 11-Jan-21 02:04 PM
Arrived: 11-Jan-21 03:07 PM
Distance/Time
Traveled:
120nm/1:03
Distance/Time
To Go:
Arrived

Flight Plot

Page will automatically refresh every two minutes.

Flight plan parsing failed; only flown route is shown


Map Options




Map Legend


Flown Route
Filed Route
Departure Airport
Arrival Airport
Navaid (VOR, NDB)
Fix

Horizontal Profiles

Position Reports

Time Latitude Longitude Heading Altitude Ground
Speed
11-Jan-21 14:02 34.453505 -115.555704 202 3614ft 122kts
11-Jan-21 14:03 34.421785 -115.570346 207 4760ft 129kts
11-Jan-21 14:04 34.391352 -115.590764 212 5996ft 120kts
11-Jan-21 14:05 34.358887 -115.610123 204 6647ft 137kts
11-Jan-21 14:06 34.325445 -115.636118 217 6609ft 151kts
11-Jan-21 14:07 34.292591 -115.662871 191 6508ft 152kts
11-Jan-21 14:08 34.251984 -115.682473 207 6504ft 164kts
11-Jan-21 14:09 34.209787 -115.709165 207 6488ft 171kts
11-Jan-21 14:10 34.167546 -115.735421 208 6500ft 171kts
11-Jan-21 14:11 34.125074 -115.761924 208 6502ft 172kts
11-Jan-21 14:12 34.113461 -115.812104 279 6499ft 163kts
11-Jan-21 14:13 34.115189 -115.866708 275 6499ft 164kts
11-Jan-21 14:14 34.116731 -115.922064 275 6501ft 165kts
11-Jan-21 14:15 34.118332 -115.977442 275 6503ft 165kts
11-Jan-21 14:16 34.119896 -116.033086 275 6499ft 165kts
11-Jan-21 14:17 34.121451 -116.088577 275 6508ft 166kts
11-Jan-21 14:18 34.122926 -116.144473 275 6496ft 166kts
11-Jan-21 14:19 34.124479 -116.200136 275 6503ft 166kts
11-Jan-21 14:20 34.125944 -116.255750 275 6497ft 164kts
11-Jan-21 14:21 34.122691 -116.311024 264 6496ft 167kts
11-Jan-21 14:22 34.113954 -116.366139 256 6498ft 168kts
11-Jan-21 14:23 34.099237 -116.419408 254 6495ft 166kts
11-Jan-21 14:24 34.073873 -116.466890 234 6500ft 170kts
11-Jan-21 14:25 34.042332 -116.508616 224 6411ft 167kts
11-Jan-21 14:26 34.010010 -116.548721 224 6384ft 165kts
11-Jan-21 14:27 33.980819 -116.589697 241 6380ft 159kts
11-Jan-21 14:28 33.962379 -116.637022 244 6386ft 154kts
11-Jan-21 14:29 33.947382 -116.685610 254 6386ft 155kts
11-Jan-21 14:30 33.934786 -116.735644 257 6380ft 158kts
11-Jan-21 14:31 33.924455 -116.787354 260 6382ft 159kts
11-Jan-21 14:32 33.918228 -116.839979 268 6384ft 158kts
11-Jan-21 14:33 33.927066 -116.890015 293 6444ft 151kts
11-Jan-21 14:34 33.939307 -116.938723 282 6497ft 154kts
11-Jan-21 14:35 33.948808 -116.988916 284 6455ft 152kts
11-Jan-21 14:37 33.958173 -117.038080 280 6443ft 150kts
11-Jan-21 14:38 33.967669 -117.088377 279 6437ft 157kts
11-Jan-21 14:39 33.977624 -117.141207 281 6444ft 166kts
11-Jan-21 14:40 33.988020 -117.196441 285 6451ft 171kts
11-Jan-21 14:41 33.998227 -117.250694 285 6502ft 165kts
11-Jan-21 14:42 34.008393 -117.305072 285 6490ft 164kts
11-Jan-21 14:43 34.018372 -117.358459 286 6499ft 163kts
11-Jan-21 14:44 34.027182 -117.405634 286 6499ft 164kts
11-Jan-21 14:45 34.037144 -117.459273 285 6497ft 164kts
11-Jan-21 14:46 34.046908 -117.512156 283 6499ft 163kts
11-Jan-21 14:47 34.056815 -117.565602 282 6499ft 163kts
11-Jan-21 14:48 34.066480 -117.618045 282 6500ft 163kts
11-Jan-21 14:49 34.076155 -117.670696 282 6499ft 163kts
11-Jan-21 14:50 34.085941 -117.724049 282 6501ft 163kts
11-Jan-21 14:51 34.095668 -117.777165 282 6500ft 163kts
11-Jan-21 14:52 34.105555 -117.831282 282 6167ft 162kts
11-Jan-21 14:52 34.112865 -117.871478 282 5697ft 155kts
11-Jan-21 14:53 34.122037 -117.921926 282 5100ft 153kts
11-Jan-21 14:55 34.132622 -117.980451 282 4403ft 153kts
11-Jan-21 14:56 34.141768 -118.030990 282 3714ft 155kts
11-Jan-21 14:56 34.149218 -118.072324 282 3219ft 150kts
11-Jan-21 14:57 34.154600 -118.118744 265 3149ft 139kts
11-Jan-21 14:58 34.151247 -118.164965 270 2910ft 134kts
11-Jan-21 14:59 34.155251 -118.208840 282 2529ft 126kts
11-Jan-21 15:00 34.164676 -118.248719 288 2279ft 132kts
11-Jan-21 15:01 34.176742 -118.291042 286 2010ft 134kts
11-Jan-21 15:02 34.180607 -118.333624 266 1947ft 121kts
11-Jan-21 15:03 34.177422 -118.373873 264 1789ft 121kts
11-Jan-21 15:04 34.193238 -118.393999 34 1652ft 93kts
11-Jan-21 15:05 34.198017 -118.369270 92 800ft 75kts
11-Jan-21 15:06 34.198105 -118.357152 344 737ft 6kts
11-Jan-21 15:07 34.198368 -118.357834 315 737ft 6kts
11-Jan-21 15:08 34.200872 -118.358810 295 737ft 3kts
11-Jan-21 15:09 34.200840 -118.358966 244 737ft 0kts

Navigation Log

Ident Type
Flight plan parsing failed, navigation log unavailable